Georgiana, Alabama
Current Conditions -  °F | °C
As of 2:17 AM on Monday 24 Nov 2014 (Local Time) from KPRN Reporting Station
Broken Clouds Broken Clouds  
Wind Chill: 64°   Ceiling: 400
Heat Index: 64°   Visibility: 8mi
Dew Point: 63°   Wind: 6mph
Humidity: 94%   Direction: 200°SSW
Pressure: 29.75"   Gusts: NA
Location:  31.64°N, 86.74°W
Report Text: KPRN 240817Z AUTO 20005KT 8SM BKN004 18/17 A2975 RMK AO2 CIG 003V007
Loading
Personal Weather Stations






























Interactive Weather Map New forecast layout! Learn more

10-Day Weather Forecast

Advertisements
Track Severe Weather on mobile